createdAt,value
2023-05-24T00:01:00.325Z,5.40
2023-05-24T00:03:31.295Z,4.80
2023-05-24T00:05:58.821Z,4.50
2023-05-24T00:08:26.371Z,5.60
2023-05-24T00:10:53.729Z,6.10
2023-05-24T00:13:21.201Z,5.60
2023-05-24T00:15:48.667Z,5.80
2023-05-24T00:18:18.496Z,5.80
2023-05-24T00:20:46.342Z,5.70
2023-05-24T00:23:14.140Z,5.70
2023-05-24T00:25:41.609Z,5.50
2023-05-24T00:28:09.045Z,5.50
2023-05-24T00:30:36.440Z,5.70
2023-05-24T00:33:03.906Z,5.30
2023-05-24T00:35:31.302Z,5.50
2023-05-24T00:37:58.775Z,5.10
2023-05-24T00:40:26.408Z,4.70
2023-05-24T00:42:53.754Z,5.20
2023-05-24T00:45:21.176Z,4.80
2023-05-24T00:47:49.333Z,4.40
2023-05-24T00:50:17.388Z,4.90
2023-05-24T00:52:44.914Z,4.50
2023-05-24T00:55:12.595Z,4.70
2023-05-24T00:57:40.098Z,4.00
2023-05-24T01:00:09.012Z,5.20
2023-05-24T01:02:38.062Z,4.70
2023-05-24T01:05:06.108Z,4.50
2023-05-24T01:07:42.733Z,5.30
2023-05-24T01:10:30.243Z,4.30
2023-05-24T01:13:17.294Z,3.90
2023-05-24T01:15:51.218Z,5.20
2023-05-24T01:18:33.311Z,4.40
2023-05-24T01:21:12.896Z,4.10
2023-05-24T01:24:02.462Z,4.10
2023-05-24T01:27:07.801Z,4.60
2023-05-24T01:29:36.340Z,4.40
2023-05-24T01:32:03.981Z,4.70
2023-05-24T01:34:31.387Z,4.80
2023-05-24T01:36:58.848Z,4.70
2023-05-24T01:39:27.795Z,4.10
2023-05-24T01:42:21.873Z,4.50
2023-05-24T01:45:34.418Z,4.20
2023-05-24T01:48:07.061Z,5.50
2023-05-24T01:50:41.176Z,5.20
2023-05-24T01:53:09.684Z,5.40
2023-05-24T01:55:37.161Z,5.10
2023-05-24T01:58:05.087Z,5.10
2023-05-24T02:00:33.195Z,5.20
2023-05-24T02:03:02.403Z,4.70
2023-05-24T02:05:29.986Z,4.80
2023-05-24T02:07:57.413Z,4.80
2023-05-24T02:10:24.876Z,5.10
2023-05-24T02:12:52.330Z,4.60
2023-05-24T02:15:20.875Z,4.90
2023-05-24T02:17:48.439Z,4.70
2023-05-24T02:20:17.546Z,5.00
2023-05-24T02:22:45.138Z,4.50
2023-05-24T02:25:12.545Z,4.60
2023-05-24T02:27:40.054Z,4.40
2023-05-24T02:30:08.397Z,4.90
2023-05-24T02:32:36.654Z,4.90
2023-05-24T02:35:04.426Z,5.30
2023-05-24T02:37:32.188Z,4.80
2023-05-24T02:39:59.619Z,4.70
2023-05-24T02:42:26.971Z,4.20
2023-05-24T02:44:55.976Z,4.40
2023-05-24T02:47:23.454Z,4.30
2023-05-24T02:49:51.773Z,5.00
2023-05-24T02:52:21.947Z,4.30
2023-05-24T02:54:49.845Z,4.60
2023-05-24T02:57:18.733Z,4.50
2023-05-24T02:59:46.534Z,4.10
2023-05-24T03:02:14.063Z,4.20
2023-05-24T03:04:41.708Z,4.20
2023-05-24T03:07:10.934Z,4.30
2023-05-24T03:09:38.382Z,4.30
2023-05-24T03:12:06.461Z,5.30
2023-05-24T03:14:34.593Z,4.60
2023-05-24T03:17:02.967Z,4.70
2023-05-24T03:19:30.658Z,4.80
2023-05-24T03:21:58.174Z,4.90
2023-05-24T03:24:26.192Z,5.00
2023-05-24T03:26:53.776Z,5.40
2023-05-24T03:29:21.725Z,5.50
2023-05-24T03:31:49.513Z,5.50
2023-05-24T03:34:16.889Z,5.60
2023-05-24T03:36:44.467Z,5.10
2023-05-24T03:39:11.869Z,4.90
2023-05-24T03:41:52.823Z,5.00
2023-05-24T03:44:21.359Z,5.70
2023-05-24T03:46:48.886Z,5.10
2023-05-24T03:49:17.450Z,5.80
2023-05-24T03:51:45.388Z,5.50
2023-05-24T03:54:12.997Z,5.60
2023-05-24T03:56:41.845Z,6.20
2023-05-24T03:59:09.368Z,5.70
2023-05-24T04:01:36.855Z,5.60
2023-05-24T04:04:04.488Z,5.70
2023-05-24T04:06:32.079Z,5.20
2023-05-24T04:09:00.054Z,5.10
2023-05-24T04:11:28.722Z,4.80
2023-05-24T04:13:57.165Z,5.50
2023-05-24T04:16:26.223Z,5.10
2023-05-24T04:18:55.106Z,4.90
2023-05-24T04:21:23.070Z,4.90
2023-05-24T04:23:50.636Z,5.20
2023-05-24T04:26:19.135Z,6.60
2023-05-24T04:28:46.884Z,5.90
2023-05-24T04:31:15.793Z,5.40
2023-05-24T04:33:43.464Z,6.20
2023-05-24T04:36:12.106Z,4.90
2023-05-24T04:38:41.042Z,4.90
2023-05-24T04:41:08.629Z,5.40
2023-05-24T04:43:38.311Z,4.90
2023-05-24T04:46:08.361Z,5.10
2023-05-24T04:48:36.699Z,5.10
2023-05-24T04:51:04.542Z,4.80
2023-05-24T04:53:33.226Z,4.50
2023-05-24T04:56:00.787Z,5.40
2023-05-24T04:58:28.250Z,5.00
2023-05-24T05:00:55.801Z,4.90
2023-05-24T05:03:23.383Z,5.20
2023-05-24T05:05:50.905Z,5.60
2023-05-24T05:08:18.494Z,5.40
2023-05-24T05:10:47.403Z,5.50
2023-05-24T05:13:14.792Z,4.90
2023-05-24T05:15:42.945Z,4.90
2023-05-24T05:18:11.701Z,4.80
2023-05-24T05:20:40.339Z,5.00
2023-05-24T05:23:07.943Z,4.80
2023-05-24T05:25:36.101Z,5.40
2023-05-24T05:28:03.656Z,5.20
2023-05-24T05:30:32.159Z,5.70
2023-05-24T05:32:59.681Z,6.00
2023-05-24T05:35:27.268Z,4.80
2023-05-24T05:37:55.790Z,4.70
2023-05-24T05:40:23.240Z,4.10
2023-05-24T05:42:50.872Z,4.50
2023-05-24T05:45:19.449Z,4.50
2023-05-24T05:47:46.979Z,4.80
2023-05-24T05:50:15.539Z,4.80
2023-05-24T05:52:46.981Z,4.30
2023-05-24T05:55:14.419Z,4.30
2023-05-24T05:57:41.901Z,3.80
2023-05-24T06:00:10.211Z,3.90
2023-05-24T06:02:40.372Z,4.20
2023-05-24T06:05:08.327Z,3.90
2023-05-24T06:07:37.577Z,4.40
2023-05-24T06:10:06.784Z,5.10
2023-05-24T06:12:34.479Z,3.90
2023-05-24T06:15:02.517Z,3.80
2023-05-24T06:17:30.287Z,4.50
2023-05-24T06:19:58.253Z,4.40
2023-05-24T06:22:28.230Z,4.40
2023-05-24T06:24:55.847Z,4.20
2023-05-24T06:27:23.833Z,4.90
2023-05-24T06:29:51.579Z,14.20
2023-05-24T06:32:19.250Z,4.70
2023-05-24T06:34:47.723Z,5.90
2023-05-24T06:37:16.332Z,4.60
2023-05-24T06:39:43.952Z,3.20
2023-05-24T06:42:11.400Z,3.40
2023-05-24T06:44:39.910Z,3.60
2023-05-24T06:47:09.472Z,5.10
2023-05-24T06:49:39.379Z,4.30
2023-05-24T06:52:08.341Z,4.00
2023-05-24T06:54:36.269Z,5.30
2023-05-24T06:57:05.493Z,7.50
2023-05-24T06:59:32.929Z,3.60
2023-05-24T07:02:04.940Z,3.40
2023-05-24T07:04:33.743Z,3.50
2023-05-24T07:07:03.351Z,2.80
2023-05-24T07:09:35.065Z,3.70
2023-05-24T07:12:02.697Z,5.90
2023-05-24T07:14:32.192Z,3.50
2023-05-24T07:17:01.141Z,3.50
2023-05-24T07:19:29.841Z,3.60
2023-05-24T07:22:01.131Z,3.40
2023-05-24T07:24:31.141Z,3.10
2023-05-24T07:26:59.603Z,3.10
2023-05-24T07:29:54.731Z,3.00
2023-05-24T07:32:24.729Z,3.00
2023-05-24T07:34:54.121Z,3.10
2023-05-24T07:37:24.240Z,3.30
2023-05-24T07:39:52.314Z,3.10
2023-05-24T07:42:22.173Z,3.00
2023-05-24T07:44:51.212Z,3.40
2023-05-24T07:47:23.137Z,3.20
2023-05-24T07:49:51.587Z,3.20
2023-05-24T07:54:52.581Z,2.70
2023-05-24T07:57:21.283Z,3.60
2023-05-24T07:59:50.205Z,2.50
2023-05-24T08:02:18.474Z,2.70
2023-05-24T08:04:46.782Z,3.00
2023-05-24T08:07:14.784Z,2.80
2023-05-24T08:09:42.516Z,2.60
2023-05-24T08:12:10.105Z,2.70
2023-05-24T08:14:37.700Z,2.30
2023-05-24T08:17:06.377Z,2.70
2023-05-24T08:19:36.132Z,2.90
2023-05-24T08:22:05.065Z,2.90
2023-05-24T08:24:32.647Z,2.90
2023-05-24T08:27:02.792Z,2.90
2023-05-24T08:29:32.986Z,3.20
2023-05-24T08:32:02.435Z,3.30
2023-05-24T08:34:30.571Z,3.10
2023-05-24T08:36:58.229Z,3.10
2023-05-24T08:39:26.036Z,3.10
2023-05-24T08:42:08.089Z,2.80
2023-05-24T08:45:13.765Z,3.10
2023-05-24T08:47:43.415Z,3.20
2023-05-24T08:50:17.507Z,3.10
2023-05-24T08:53:07.055Z,2.80
2023-05-24T08:55:38.565Z,3.10
2023-05-24T08:58:06.554Z,3.20
2023-05-24T09:00:35.829Z,3.50
2023-05-24T09:03:38.259Z,3.80
2023-05-24T09:06:22.097Z,3.30
2023-05-24T09:08:53.593Z,3.60
2023-05-24T09:11:27.380Z,3.10
2023-05-24T09:13:57.507Z,3.40
2023-05-24T09:19:32.783Z,3.50
2023-05-24T09:22:07.621Z,3.40
2023-05-24T09:28:11.749Z,3.40
2023-05-24T09:31:08.111Z,3.60
2023-05-24T09:33:41.409Z,3.40
2023-05-24T09:36:18.938Z,3.60
2023-05-24T09:38:53.390Z,3.40
2023-05-24T09:41:26.180Z,3.20
2023-05-24T09:43:59.184Z,3.10
2023-05-24T09:46:30.187Z,3.20
2023-05-24T09:51:42.718Z,3.20
2023-05-24T09:54:10.452Z,3.50
2023-05-24T09:56:41.684Z,3.10
2023-05-24T09:59:10.681Z,3.10
2023-05-24T10:01:40.550Z,3.30
2023-05-24T10:04:12.184Z,3.80
2023-05-24T10:06:43.260Z,3.30
2023-05-24T10:09:14.406Z,3.70
2023-05-24T10:11:42.210Z,3.60
2023-05-24T10:14:10.984Z,3.40
2023-05-24T10:16:40.029Z,3.20
2023-05-24T10:19:07.708Z,3.80
2023-05-24T10:21:37.897Z,3.30
2023-05-24T10:24:08.891Z,3.50
2023-05-24T10:26:42.694Z,3.20
2023-05-24T10:29:13.561Z,3.10
2023-05-24T10:31:45.401Z,3.20
2023-05-24T10:34:14.230Z,3.10
2023-05-24T10:36:41.833Z,3.00
2023-05-24T10:39:12.203Z,2.90
2023-05-24T10:41:44.231Z,3.00
2023-05-24T10:44:16.651Z,2.90
2023-05-24T10:47:12.169Z,2.80
2023-05-24T10:50:00.597Z,3.10
2023-05-24T10:52:38.683Z,2.90
2023-05-24T10:55:10.028Z,2.60
2023-05-24T10:57:42.049Z,2.70
2023-05-24T11:00:35.766Z,2.60
2023-05-24T11:03:26.280Z,3.00
2023-05-24T11:08:45.872Z,3.10
2023-05-24T11:11:25.123Z,2.50
2023-05-24T11:14:00.122Z,2.80
2023-05-24T11:16:39.585Z,2.80
2023-05-24T11:19:20.416Z,2.60
2023-05-24T11:22:00.261Z,2.30
2023-05-24T11:24:29.062Z,2.80
2023-05-24T11:26:57.826Z,2.90
2023-05-24T11:32:13.412Z,2.60
2023-05-24T11:34:45.943Z,2.50
2023-05-24T11:37:18.836Z,3.00
2023-05-24T11:39:54.802Z,2.20
2023-05-24T11:42:24.685Z,2.30
2023-05-24T11:44:55.446Z,2.70
2023-05-24T11:47:29.389Z,2.70
2023-05-24T11:51:39.659Z,2.60
2023-05-24T11:54:06.918Z,2.60
2023-05-24T11:56:34.464Z,2.40
2023-05-24T11:59:17.689Z,2.60
2023-05-24T12:01:45.120Z,3.00
2023-05-24T12:04:12.944Z,2.90
2023-05-24T12:06:44.279Z,2.90
2023-05-24T12:09:15.188Z,3.50
2023-05-24T12:11:46.225Z,2.60
2023-05-24T12:14:14.675Z,2.50
2023-05-24T12:16:44.974Z,2.80
2023-05-24T12:19:31.430Z,2.50
2023-05-24T12:22:00.582Z,2.70
2023-05-24T12:24:31.369Z,2.70
2023-05-24T12:27:03.240Z,3.00
2023-05-24T12:29:34.512Z,2.80
2023-05-24T12:32:01.521Z,2.50
2023-05-24T12:34:28.691Z,2.80
2023-05-24T12:37:21.464Z,2.90
2023-05-24T12:39:48.312Z,2.80
2023-05-24T12:42:15.774Z,2.70
2023-05-24T12:44:44.418Z,3.00
2023-05-24T12:47:16.143Z,2.90
2023-05-24T12:49:43.589Z,2.60
2023-05-24T12:52:12.416Z,2.80
2023-05-24T12:54:39.989Z,2.90
2023-05-24T12:57:07.244Z,3.00
2023-05-24T12:59:34.907Z,2.90
2023-05-24T13:02:02.516Z,2.60
2023-05-24T13:04:33.790Z,2.70
2023-05-24T13:07:02.624Z,3.10
2023-05-24T13:09:29.804Z,2.60
2023-05-24T13:11:56.905Z,2.80
2023-05-24T13:14:26.865Z,2.80
2023-05-24T13:16:55.283Z,3.10
2023-05-24T13:19:23.203Z,3.00
2023-05-24T13:21:50.344Z,2.70
2023-05-24T13:24:19.877Z,2.80
2023-05-24T13:26:50.041Z,3.20
2023-05-24T13:29:34.117Z,2.70
2023-05-24T13:32:04.165Z,2.90
2023-05-24T13:34:32.952Z,2.80
2023-05-24T13:37:00.120Z,2.80
2023-05-24T13:39:28.275Z,3.10
2023-05-24T13:41:56.131Z,2.90
2023-05-24T13:44:23.324Z,2.60
2023-05-24T13:46:52.228Z,3.10
2023-05-24T13:49:20.580Z,2.70
2023-05-24T13:51:49.158Z,2.90
2023-05-24T13:54:17.010Z,3.20
2023-05-24T13:56:48.616Z,3.10
2023-05-24T13:59:16.332Z,3.00
2023-05-24T14:01:45.391Z,3.00
2023-05-24T14:04:13.261Z,3.10
2023-05-24T14:06:40.573Z,3.00
2023-05-24T14:09:07.959Z,3.10
2023-05-24T14:11:37.224Z,3.20
2023-05-24T14:16:34.499Z,2.90
2023-05-24T14:19:02.215Z,2.80
2023-05-24T14:21:32.971Z,2.90
2023-05-24T14:24:00.183Z,3.20
2023-05-24T14:26:29.646Z,3.30
2023-05-24T14:28:57.204Z,2.70
2023-05-24T14:31:24.672Z,3.10
2023-05-24T14:33:51.694Z,3.00
2023-05-24T14:36:18.607Z,2.90
2023-05-24T14:38:45.154Z,3.60
2023-05-24T14:41:11.744Z,3.10
2023-05-24T14:43:40.017Z,3.00
2023-05-24T14:46:07.152Z,3.20
2023-05-24T14:48:34.802Z,3.20
2023-05-24T14:51:01.496Z,3.20
2023-05-24T14:53:28.513Z,3.40
2023-05-24T14:55:55.445Z,3.00
2023-05-24T14:58:23.146Z,2.90
2023-05-24T15:00:50.600Z,3.30
2023-05-24T15:03:20.169Z,2.90
2023-05-24T15:05:47.310Z,3.60
2023-05-24T15:08:15.037Z,3.20
2023-05-24T15:10:44.094Z,3.40
2023-05-24T15:13:12.749Z,3.20
2023-05-24T15:15:39.478Z,3.30
2023-05-24T15:18:06.289Z,3.30
2023-05-24T15:20:35.826Z,3.90
2023-05-24T15:23:02.983Z,3.30
2023-05-24T15:25:31.883Z,3.30
2023-05-24T15:28:02.991Z,3.30
2023-05-24T15:30:30.070Z,3.40
2023-05-24T15:32:56.807Z,3.20
2023-05-24T15:35:23.594Z,3.30
2023-05-24T15:37:50.692Z,3.60
2023-05-24T15:40:18.197Z,3.50
2023-05-24T15:42:44.878Z,3.60
2023-05-24T15:45:11.652Z,4.00
2023-05-24T15:47:41.966Z,3.30
2023-05-24T15:50:09.826Z,3.20
2023-05-24T15:52:36.695Z,3.50
2023-05-24T15:55:04.035Z,3.50
2023-05-24T15:57:31.199Z,2.80
2023-05-24T15:59:57.890Z,3.40
2023-05-24T16:02:24.539Z,2.80
2023-05-24T16:04:51.565Z,3.10
2023-05-24T16:07:19.099Z,2.90
2023-05-24T16:09:46.344Z,3.20
2023-05-24T16:12:13.559Z,3.50
2023-05-24T16:14:40.415Z,3.10
2023-05-24T16:17:07.691Z,3.00
2023-05-24T16:19:35.802Z,3.10
2023-05-24T16:22:03.700Z,3.30
2023-05-24T16:24:30.692Z,3.70
2023-05-24T16:26:57.813Z,2.70
2023-05-24T16:29:25.815Z,3.00
2023-05-24T16:31:52.482Z,2.40
2023-05-24T16:34:19.394Z,3.00
2023-05-24T16:36:46.481Z,4.30
2023-05-24T16:39:13.373Z,3.00
2023-05-24T16:41:42.036Z,3.00
2023-05-24T16:44:09.963Z,3.60
2023-05-24T16:46:36.950Z,3.10
2023-05-24T16:49:03.890Z,3.20
2023-05-24T16:51:31.438Z,3.00
2023-05-24T16:53:58.151Z,3.10
2023-05-24T16:56:25.542Z,2.80
2023-05-24T16:58:52.352Z,3.30
2023-05-24T17:01:22.192Z,3.90
2023-05-24T17:03:49.489Z,3.20
2023-05-24T17:06:16.263Z,3.50
2023-05-24T17:08:42.935Z,3.90
2023-05-24T17:11:09.658Z,4.10
2023-05-24T17:13:37.226Z,3.80
2023-05-24T17:16:04.138Z,3.30
2023-05-24T17:18:31.302Z,2.70
2023-05-24T17:20:59.562Z,3.80
2023-05-24T17:23:27.663Z,3.20
2023-05-24T17:25:55.084Z,3.30
2023-05-24T17:28:27.169Z,3.00
2023-05-24T17:30:54.900Z,3.10
2023-05-24T17:33:22.848Z,3.60
2023-05-24T17:35:50.151Z,3.30
2023-05-24T17:38:17.992Z,3.70
2023-05-24T17:40:45.125Z,3.80
2023-05-24T17:43:12.907Z,4.50
2023-05-24T17:45:39.812Z,4.80
2023-05-24T17:48:07.881Z,4.00
2023-05-24T17:50:34.996Z,4.10
2023-05-24T17:53:02.100Z,3.80
2023-05-24T17:55:29.101Z,4.20
2023-05-24T17:57:57.688Z,5.80
2023-05-24T18:00:27.441Z,4.30
2023-05-24T18:02:54.024Z,3.80
2023-05-24T18:05:21.003Z,3.70
2023-05-24T18:07:47.888Z,3.30
2023-05-24T18:10:14.664Z,3.20
2023-05-24T18:12:41.519Z,3.60
2023-05-24T18:15:08.777Z,3.40
2023-05-24T18:17:37.154Z,3.50
2023-05-24T18:20:05.174Z,3.90
2023-05-24T18:22:32.214Z,4.20
2023-05-24T18:24:58.994Z,4.40
2023-05-24T18:27:26.172Z,4.30
2023-05-24T18:29:53.552Z,4.60
2023-05-24T18:32:20.607Z,4.20
2023-05-24T18:34:47.236Z,4.50
2023-05-24T18:37:14.026Z,4.00
2023-05-24T18:39:40.958Z,3.70
2023-05-24T18:42:08.609Z,3.60
2023-05-24T18:44:37.575Z,3.70
2023-05-24T18:47:06.935Z,4.00
2023-05-24T18:49:34.251Z,4.20
2023-05-24T18:52:01.968Z,6.50
2023-05-24T18:54:31.667Z,6.80
2023-05-24T18:57:01.133Z,5.90
2023-05-24T18:59:28.899Z,7.10
2023-05-24T19:01:55.498Z,6.00
2023-05-24T19:04:22.620Z,4.60
2023-05-24T19:06:49.849Z,5.60
2023-05-24T19:09:16.971Z,5.80
2023-05-24T19:11:45.634Z,5.90
2023-05-24T19:14:14.622Z,5.50
2023-05-24T19:16:42.876Z,5.70
2023-05-24T19:19:09.831Z,5.40
2023-05-24T19:21:36.916Z,4.80
2023-05-24T19:24:04.251Z,4.40
2023-05-24T19:26:31.175Z,4.80
2023-05-24T19:28:58.958Z,4.50
2023-05-24T19:31:26.380Z,5.20
2023-05-24T19:34:00.667Z,4.90
2023-05-24T19:36:28.969Z,5.30
2023-05-24T19:38:55.669Z,5.20
2023-05-24T19:41:22.262Z,5.00
2023-05-24T19:43:49.341Z,5.10
2023-05-24T19:46:16.002Z,5.20
2023-05-24T19:48:42.622Z,5.70
2023-05-24T19:51:12.338Z,5.40
2023-05-24T19:53:40.028Z,4.90
2023-05-24T19:56:06.680Z,4.60
2023-05-24T19:58:33.503Z,4.80
2023-05-24T20:01:00.360Z,4.80
2023-05-24T20:03:27.169Z,4.90
2023-05-24T20:05:54.128Z,5.10
2023-05-24T20:08:21.726Z,5.00
2023-05-24T20:10:50.337Z,5.40
2023-05-24T20:13:17.308Z,8.80
2023-05-24T20:15:44.023Z,5.60
2023-05-24T20:18:11.201Z,5.40
2023-05-24T20:20:38.406Z,4.80
2023-05-24T20:23:05.367Z,4.60
2023-05-24T20:25:32.139Z,4.20
2023-05-24T20:27:59.276Z,4.00
2023-05-24T20:30:26.140Z,4.90
2023-05-24T20:32:53.328Z,4.40
2023-05-24T20:35:20.171Z,5.10
2023-05-24T20:37:46.794Z,4.20
2023-05-24T20:40:24.864Z,3.90
2023-05-24T20:42:51.931Z,4.60
2023-05-24T20:45:19.095Z,4.00
2023-05-24T20:47:45.964Z,3.80
2023-05-24T20:50:14.266Z,3.50
2023-05-24T20:52:40.933Z,3.60
2023-05-24T20:55:08.034Z,4.00
2023-05-24T20:57:34.934Z,4.60
2023-05-24T21:00:04.544Z,4.70
2023-05-24T21:02:31.633Z,4.40
2023-05-24T21:04:58.235Z,4.10
2023-05-24T21:07:25.583Z,3.80
2023-05-24T21:09:53.527Z,3.50
2023-05-24T21:12:20.319Z,3.40
2023-05-24T21:14:47.402Z,3.90
2023-05-24T21:17:14.107Z,4.10
2023-05-24T21:19:41.540Z,4.50
2023-05-24T21:22:08.128Z,7.70
2023-05-24T21:24:35.303Z,5.50
2023-05-24T21:27:02.049Z,4.90
2023-05-24T21:29:29.296Z,4.90
2023-05-24T21:31:55.954Z,6.20
2023-05-24T21:34:22.524Z,5.60
2023-05-24T21:36:49.536Z,5.10
2023-05-24T21:39:16.187Z,4.90
2023-05-24T21:41:42.890Z,6.00
2023-05-24T21:44:09.526Z,6.50
2023-05-24T21:46:36.543Z,6.20
2023-05-24T21:49:03.424Z,5.80
2023-05-24T21:51:30.263Z,5.30
2023-05-24T21:53:57.351Z,5.70
2023-05-24T21:56:24.105Z,5.50
2023-05-24T21:58:50.750Z,5.20
2023-05-24T22:01:17.450Z,5.10
2023-05-24T22:03:44.319Z,5.10
2023-05-24T22:06:11.189Z,5.20
2023-05-24T22:08:37.924Z,5.30
2023-05-24T22:11:04.869Z,5.20
2023-05-24T22:13:31.676Z,5.20
2023-05-24T22:15:59.721Z,5.30
2023-05-24T22:18:27.732Z,5.10
2023-05-24T22:20:57.781Z,5.70
2023-05-24T22:23:25.472Z,5.60
2023-05-24T22:25:52.047Z,5.40
2023-05-24T22:28:24.009Z,4.90
2023-05-24T22:30:51.782Z,4.60
2023-05-24T22:33:19.474Z,4.40
2023-05-24T22:35:46.129Z,5.20
2023-05-24T22:38:14.205Z,4.80
2023-05-24T22:40:41.609Z,5.00
2023-05-24T22:43:08.204Z,5.20
2023-05-24T22:45:34.932Z,3.90
2023-05-24T22:48:03.075Z,4.20
2023-05-24T22:50:30.289Z,4.00
2023-05-24T22:52:58.206Z,4.30
2023-05-24T22:55:24.957Z,4.60
2023-05-24T22:57:51.976Z,5.50
2023-05-24T23:00:20.094Z,4.20
2023-05-24T23:02:47.077Z,3.90
2023-05-24T23:05:14.150Z,3.70
2023-05-24T23:07:41.104Z,4.10
2023-05-24T23:10:08.757Z,5.20
2023-05-24T23:12:35.824Z,3.90
2023-05-24T23:15:02.492Z,4.40
2023-05-24T23:17:30.247Z,4.50
2023-05-24T23:19:57.015Z,4.50
2023-05-24T23:22:25.692Z,4.50
2023-05-24T23:24:52.918Z,3.90
2023-05-24T23:27:19.713Z,3.50
2023-05-24T23:29:46.491Z,4.10
2023-05-24T23:32:13.036Z,4.70
2023-05-24T23:34:41.713Z,4.50
2023-05-24T23:37:08.356Z,4.60
2023-05-24T23:39:37.949Z,4.20
2023-05-24T23:42:09.243Z,4.20
2023-05-24T23:44:36.909Z,4.40
2023-05-24T23:47:03.891Z,4.60
2023-05-24T23:49:31.175Z,4.00
2023-05-24T23:51:58.122Z,4.20
2023-05-24T23:54:25.038Z,4.30
2023-05-24T23:56:51.692Z,4.30
2023-05-24T23:59:19.115Z,3.70
